Time,TemperatureF,DewpointF,PressureIn,WindDirection,WindDirectionDegrees,WindSpeedMPH,WindSpeedGustMPH,Humidity,HourlyPrecipIn,Conditions,Clouds,dailyrainin,SolarRadiationWatts/m^2,SoftwareType,DateUTC
2014-01-02 00:06:00,58.8,58.0,30.08,East,86,3.0,5.0,98,0.01,,,0.00,0,weatherlink.com 1.10,2014-01-02 05:06:00,
2014-01-02 00:21:00,58.9,58.0,30.07,NNE,15,2.0,5.0,98,0.01,,,0.00,0,weatherlink.com 1.10,2014-01-02 05:21:00,
2014-01-02 00:36:00,58.9,58.0,30.07,NNE,16,2.0,3.0,98,0.01,,,0.01,0,weatherlink.com 1.10,2014-01-02 05:36:00,
2014-01-02 00:51:00,58.9,58.0,30.07,North,355,1.0,3.0,98,0.01,,,0.01,0,weatherlink.com 1.10,2014-01-02 05:51:00,
2014-01-02 01:06:00,58.9,58.0,30.06,North,355,0.0,2.0,98,0.01,,,0.01,0,weatherlink.com 1.10,2014-01-02 06:06:00,
2014-01-02 01:21:00,58.9,58.0,30.05,NE,49,0.0,3.0,98,0.01,,,0.01,0,weatherlink.com 1.10,2014-01-02 06:21:00,
2014-01-02 01:36:00,58.9,58.0,30.04,East,85,0.0,3.0,98,0.00,,,0.01,0,weatherlink.com 1.10,2014-01-02 06:36:00,
2014-01-02 01:51:00,58.9,58.0,30.03,ENE,69,0.0,3.0,98,0.00,,,0.01,0,weatherlink.com 1.10,2014-01-02 06:51:00,
2014-01-02 02:06:00,58.9,58.0,30.02,East,85,3.0,3.0,98,0.00,,,0.01,0,weatherlink.com 1.10,2014-01-02 07:06:00,
2014-01-02 02:22:00,59.0,59.0,30.02,ENE,76,0.0,3.0,98,0.00,,,0.01,0,weatherlink.com 1.10,2014-01-02 07:22:00,
2014-01-02 02:37:00,59.1,59.0,30.01,ESE,107,2.0,2.0,98,0.00,,,0.01,0,weatherlink.com 1.10,2014-01-02 07:37:00,
2014-01-02 02:52:00,59.1,59.0,30.01,ESE,107,0.0,1.0,98,0.00,,,0.01,0,weatherlink.com 1.10,2014-01-02 07:52:00,
2014-01-02 03:07:00,59.1,59.0,30.00,ESE,107,0.0,1.0,98,0.00,,,0.01,0,weatherlink.com 1.10,2014-01-02 08:07:00,
2014-01-02 03:22:00,59.2,59.0,29.99,ESE,107,0.0,1.0,98,0.00,,,0.01,0,weatherlink.com 1.10,2014-01-02 08:22:00,
2014-01-02 03:37:00,59.2,59.0,29.99,ESE,107,0.0,1.0,98,0.02,,,0.03,0,weatherlink.com 1.10,2014-01-02 08:37:00,
2014-01-02 03:52:00,59.3,59.0,29.98,ESE,107,1.0,1.0,98,0.02,,,0.03,0,weatherlink.com 1.10,2014-01-02 08:52:00,
2014-01-02 04:07:00,59.4,59.0,29.97,East,80,1.0,2.0,98,0.02,,,0.03,0,weatherlink.com 1.10,2014-01-02 09:07:00,
2014-01-02 04:22:00,59.5,59.0,29.97,East,81,0.0,1.0,98,0.01,,,0.03,0,weatherlink.com 1.10,2014-01-02 09:22:00,
2014-01-02 04:37:00,59.5,59.0,29.97,East,80,0.0,0.0,98,0.00,,,0.03,0,weatherlink.com 1.10,2014-01-02 09:37:00,
2014-01-02 04:52:00,59.5,59.0,29.97,East,80,0.0,0.0,98,0.00,,,0.03,0,weatherlink.com 1.10,2014-01-02 09:52:00,
2014-01-02 05:07:00,59.5,59.0,29.96,East,80,0.0,0.0,98,0.00,,,0.03,0,weatherlink.com 1.10,2014-01-02 10:07:00,
2014-01-02 05:22:00,59.5,59.0,29.96,East,80,0.0,2.0,98,0.00,,,0.03,0,weatherlink.com 1.10,2014-01-02 10:22:00,
2014-01-02 05:37:00,59.5,59.0,29.95,ENE,78,0.0,2.0,98,0.00,,,0.03,0,weatherlink.com 1.10,2014-01-02 10:37:00,
2014-01-02 05:54:00,59.4,59.0,29.95,ENE,78,0.0,2.0,98,0.00,,,0.03,0,weatherlink.com 1.10,2014-01-02 10:54:00,
2014-01-02 06:08:00,59.4,59.0,29.95,NE,43,2.0,3.0,98,0.00,,,0.03,0,weatherlink.com 1.10,2014-01-02 11:08:00,
2014-01-02 06:24:00,59.3,59.0,29.94,NE,34,2.0,3.0,98,0.02,,,0.05,0,weatherlink.com 1.10,2014-01-02 11:24:00,
2014-01-02 06:38:00,59.2,59.0,29.94,NNE,13,1.0,3.0,98,0.03,,,0.06,0,weatherlink.com 1.10,2014-01-02 11:38:00,
2014-01-02 06:54:00,59.2,59.0,29.94,North,355,1.0,4.0,98,0.03,,,0.06,0,weatherlink.com 1.10,2014-01-02 11:54:00,
2014-01-02 07:08:00,59.1,59.0,29.94,NE,38,0.0,4.0,98,0.03,,,0.06,0,weatherlink.com 1.10,2014-01-02 12:08:00,
2014-01-02 07:24:00,59.1,59.0,29.95,NE,44,2.0,2.0,98,0.01,,,0.06,0,weatherlink.com 1.10,2014-01-02 12:24:00,
2014-01-02 07:38:00,59.0,59.0,29.96,NW,309,3.0,6.0,98,0.00,,,0.06,0,weatherlink.com 1.10,2014-01-02 12:38:00,
2014-01-02 07:54:00,58.8,58.0,29.95,North,5,2.0,7.0,98,0.01,,,0.07,9,weatherlink.com 1.10,2014-01-02 12:54:00,
2014-01-02 08:08:00,58.8,58.0,29.97,NW,308,1.0,5.0,98,0.03,,,0.09,12,weatherlink.com 1.10,2014-01-02 13:08:00,
2014-01-02 08:24:00,58.8,58.0,29.97,WNW,294,0.0,3.0,98,0.12,,,0.18,7,weatherlink.com 1.10,2014-01-02 13:24:00,
2014-01-02 08:38:00,58.8,58.0,29.97,WSW,240,1.0,2.0,98,0.18,,,0.24,19,weatherlink.com 1.10,2014-01-02 13:38:00,
2014-01-02 08:54:00,58.9,58.0,29.98,NNW,348,6.0,8.0,98,0.17,,,0.24,35,weatherlink.com 1.10,2014-01-02 13:54:00,
2014-01-02 09:08:00,58.7,58.0,29.98,NNW,328,5.0,7.0,98,0.15,,,0.24,35,weatherlink.com 1.10,2014-01-02 14:08:00,
2014-01-02 09:24:00,58.6,58.0,29.98,NNW,338,4.0,8.0,98,0.06,,,0.24,44,weatherlink.com 1.10,2014-01-02 14:24:00,
2014-01-02 09:38:00,58.6,58.0,29.98,NW,324,4.0,6.0,98,0.00,,,0.24,47,weatherlink.com 1.10,2014-01-02 14:38:00,
2014-01-02 09:54:00,58.4,58.0,29.98,NNE,13,3.0,9.0,98,0.00,,,0.24,53,weatherlink.com 1.10,2014-01-02 14:54:00,
2014-01-02 10:09:00,58.4,58.0,29.97,NE,38,0.0,4.0,98,0.00,,,0.24,40,weatherlink.com 1.10,2014-01-02 15:09:00,
2014-01-02 10:24:00,58.6,58.0,29.96,ENE,69,0.0,3.0,98,0.04,,,0.28,49,weatherlink.com 1.10,2014-01-02 15:24:00,
2014-01-02 10:39:00,58.8,58.0,29.95,East,88,0.0,6.0,98,0.08,,,0.32,56,weatherlink.com 1.10,2014-01-02 15:39:00,
2014-01-02 10:54:00,59.0,59.0,29.93,East,88,0.0,5.0,98,0.08,,,0.32,47,weatherlink.com 1.10,2014-01-02 15:54:00,
2014-01-02 11:09:00,59.1,59.0,29.92,East,98,1.0,3.0,98,0.14,,,0.38,51,weatherlink.com 1.10,2014-01-02 16:09:00,
2014-01-02 11:24:00,59.4,59.0,29.92,South,185,2.0,4.0,98,0.12,,,0.40,98,weatherlink.com 1.10,2014-01-02 16:24:00,
2014-01-02 11:39:00,59.9,59.0,29.92,SSE,161,0.0,2.0,98,0.12,,,0.44,102,weatherlink.com 1.10,2014-01-02 16:39:00,
2014-01-02 11:54:00,60.1,60.0,29.92,SW,234,1.0,3.0,98,0.13,,,0.45,33,weatherlink.com 1.10,2014-01-02 16:54:00,
2014-01-02 12:09:00,60.3,60.0,29.89,SW,227,0.0,1.0,98,0.12,,,0.50,83,weatherlink.com 1.10,2014-01-02 17:09:00,
2014-01-02 12:24:00,60.7,60.0,29.88,SW,227,1.0,1.0,98,0.13,,,0.53,174,weatherlink.com 1.10,2014-01-02 17:24:00,
2014-01-02 12:39:00,61.3,61.0,29.86,SSE,155,0.0,3.0,98,0.09,,,0.53,123,weatherlink.com 1.10,2014-01-02 17:39:00,
2014-01-02 12:55:00,61.7,62.0,29.86,SSE,156,0.0,2.0,99,0.08,,,0.53,42,weatherlink.com 1.10,2014-01-02 17:55:00,
2014-01-02 13:10:00,61.8,62.0,29.84,SSE,168,1.0,3.0,99,0.06,,,0.56,123,weatherlink.com 1.10,2014-01-02 18:10:00,
2014-01-02 13:25:00,62.2,62.0,29.83,South,171,1.0,2.0,98,0.03,,,0.56,109,weatherlink.com 1.10,2014-01-02 18:25:00,
2014-01-02 13:40:00,62.6,62.0,29.82,South,188,0.0,4.0,98,0.03,,,0.56,121,weatherlink.com 1.10,2014-01-02 18:40:00,
2014-01-02 13:55:00,63.3,63.0,29.81,SSE,149,1.0,6.0,98,0.03,,,0.56,193,weatherlink.com 1.10,2014-01-02 18:55:00,
2014-01-02 14:40:00,64.7,64.0,29.80,West,265,1.0,6.0,99,0.00,,,0.56,178,weatherlink.com 1.10,2014-01-02 19:40:00,
2014-01-02 14:55:00,64.7,64.0,29.81,SSW,205,2.0,7.0,98,0.00,,,0.56,121,weatherlink.com 1.10,2014-01-02 19:55:00,
2014-01-02 15:10:00,64.9,64.0,29.81,WSW,243,3.0,7.0,98,0.00,,,0.56,111,weatherlink.com 1.10,2014-01-02 20:10:00,
2014-01-02 15:25:00,65.0,65.0,29.81,SSW,198,0.0,7.0,98,0.00,,,0.56,93,weatherlink.com 1.10,2014-01-02 20:25:00,
2014-01-02 15:40:00,65.2,65.0,29.82,West,278,4.0,7.0,98,0.00,,,0.56,60,weatherlink.com 1.10,2014-01-02 20:40:00,
2014-01-02 15:55:00,64.8,64.0,29.83,West,267,1.0,9.0,97,0.00,,,0.56,46,weatherlink.com 1.10,2014-01-02 20:55:00,
2014-01-02 16:26:00,65.0,64.0,29.82,WSW,239,2.0,8.0,97,0.00,,,0.56,58,weatherlink.com 1.10,2014-01-02 21:26:00,
2014-01-02 16:40:00,65.2,64.0,29.83,West,280,2.0,9.0,97,0.00,,,0.56,28,weatherlink.com 1.10,2014-01-02 21:40:00,
2014-01-02 16:56:00,65.3,64.0,29.82,SW,225,3.0,9.0,96,0.00,,,0.56,21,weatherlink.com 1.10,2014-01-02 21:56:00,
2014-01-02 17:11:00,65.3,65.0,29.83,SW,224,5.0,12.0,97,0.00,,,0.56,11,weatherlink.com 1.10,2014-01-02 22:11:00,
2014-01-02 17:26:00,65.3,65.0,29.83,WNW,291,3.0,11.0,97,0.00,,,0.56,0,weatherlink.com 1.10,2014-01-02 22:26:00,
2014-01-02 17:41:00,65.0,64.0,29.80,South,190,2.0,8.0,96,0.01,,,0.57,0,weatherlink.com 1.10,2014-01-02 22:41:00,
2014-01-02 17:56:00,64.9,64.0,29.81,SW,235,2.0,8.0,97,0.01,,,0.57,0,weatherlink.com 1.10,2014-01-02 22:56:00,
2014-01-02 18:11:00,64.8,64.0,29.79,SSW,206,0.0,8.0,97,0.01,,,0.57,0,weatherlink.com 1.10,2014-01-02 23:11:00,
2014-01-02 18:26:00,64.7,64.0,29.80,SSW,209,4.0,7.0,97,0.01,,,0.57,0,weatherlink.com 1.10,2014-01-02 23:26:00,
2014-01-02 18:41:00,64.6,64.0,29.81,South,188,2.0,8.0,97,0.00,,,0.57,0,weatherlink.com 1.10,2014-01-02 23:41:00,
2014-01-02 18:56:00,64.5,64.0,29.81,WSW,257,4.0,8.0,97,0.00,,,0.57,0,weatherlink.com 1.10,2014-01-02 23:56:00,
2014-01-02 19:11:00,64.5,64.0,29.82,WSW,246,10.0,11.0,97,0.00,,,0.57,0,weatherlink.com 1.10,2014-01-03 00:11:00,
2014-01-02 19:26:00,64.5,64.0,29.82,SW,231,6.0,12.0,97,0.01,,,0.58,0,weatherlink.com 1.10,2014-01-03 00:26:00,
2014-01-02 19:41:00,64.4,64.0,29.82,SW,234,5.0,12.0,97,0.01,,,0.58,0,weatherlink.com 1.10,2014-01-03 00:41:00,
2014-01-02 19:56:00,64.4,64.0,29.83,SW,229,8.0,13.0,97,0.01,,,0.58,0,weatherlink.com 1.10,2014-01-03 00:56:00,
2014-01-02 20:11:00,64.3,63.0,29.81,SW,232,4.0,10.0,96,0.01,,,0.58,0,weatherlink.com 1.10,2014-01-03 01:11:00,
2014-01-02 20:26:00,64.3,63.0,29.83,West,267,2.0,10.0,96,0.00,,,0.58,0,weatherlink.com 1.10,2014-01-03 01:26:00,
2014-01-02 20:41:00,63.3,62.0,29.85,WNW,288,6.0,20.0,95,0.00,,,0.58,0,weatherlink.com 1.10,2014-01-03 01:41:00,
2014-01-02 20:57:00,60.9,60.0,29.84,NW,308,10.0,15.0,95,0.00,,,0.58,0,weatherlink.com 1.10,2014-01-03 01:57:00,
2014-01-02 21:12:00,59.6,57.0,29.89,WNW,302,9.0,23.0,92,0.00,,,0.58,0,weatherlink.com 1.10,2014-01-03 02:12:00,
2014-01-02 21:27:00,57.8,56.0,29.88,NW,307,12.0,18.0,94,0.00,,,0.58,0,weatherlink.com 1.10,2014-01-03 02:27:00,
2014-01-02 21:42:00,57.0,54.0,29.90,NW,314,10.0,12.0,89,0.01,,,0.59,0,weatherlink.com 1.10,2014-01-03 02:42:00,
2014-01-02 21:57:00,57.1,54.0,29.90,NW,318,4.0,13.0,88,0.01,,,0.59,0,weatherlink.com 1.10,2014-01-03 02:57:00,
2014-01-02 22:12:00,56.9,54.0,29.91,WNW,302,2.0,13.0,89,0.01,,,0.59,0,weatherlink.com 1.10,2014-01-03 03:12:00,
2014-01-02 22:27:00,56.9,53.0,29.92,WNW,295,8.0,15.0,87,0.01,,,0.59,0,weatherlink.com 1.10,2014-01-03 03:27:00,
2014-01-02 22:42:00,56.7,53.0,29.93,WNW,301,5.0,14.0,87,0.00,,,0.59,0,weatherlink.com 1.10,2014-01-03 03:42:00,
2014-01-02 22:57:00,56.3,53.0,29.94,NW,309,9.0,12.0,87,0.00,,,0.59,0,weatherlink.com 1.10,2014-01-03 03:57:00,
2014-01-02 23:12:00,55.8,52.0,29.95,WNW,292,4.0,16.0,87,0.00,,,0.59,0,weatherlink.com 1.10,2014-01-03 04:12:00,
2014-01-02 23:27:00,55.6,52.0,29.96,NNW,330,1.0,11.0,88,0.00,,,0.59,0,weatherlink.com 1.10,2014-01-03 04:27:00,
2014-01-02 23:42:00,55.4,52.0,29.96,NNW,348,3.0,17.0,87,0.00,,,0.59,0,weatherlink.com 1.10,2014-01-03 04:42:00,
2014-01-02 23:58:00,54.5,49.0,29.97,NNW,337,10.0,19.0,82,0.00,,,0.59,0,weatherlink.com 1.10,2014-01-03 04:58:00,